Time;durP1;ratioP1;P1;durP2;ratioP2;P2;SDS_P1;SDS_P2;PMS_P1;PMS_P2;Temp;Humidity;BMP_temperature;BMP_pressure;BME280_temperature;BME280_humidity;BME280_pressure;Samples;Min_cycle;Max_cycle;Signal;HPM_P1;HPM_P2
2022/04/01 00:00:45;;;;;;;6.20;1.42;;;2.70;70.40;;;;;;5008072;28;20025;-39
2022/04/01 00:03:11;;;;;;;3.30;1.35;;;2.70;70.20;;;;;;4992967;28;20100;-39
2022/04/01 00:05:40;;;;;;;5.35;1.15;;;2.70;69.40;;;;;;4991636;28;20045;-42
2022/04/01 00:08:08;;;;;;;3.78;1.30;;;2.70;69.70;;;;;;5009452;28;20038;-40
2022/04/01 00:10:36;;;;;;;3.58;1.20;;;2.70;70.00;;;;;;4992115;28;20041;-40
2022/04/01 00:13:02;;;;;;;3.95;1.90;;;2.70;70.20;;;;;;5009275;28;20034;-40
2022/04/01 00:15:28;;;;;;;5.55;1.70;;;2.70;69.10;;;;;;5007740;28;20037;-40
2022/04/01 00:17:56;;;;;;;20.38;3.35;;;2.70;69.50;;;;;;5010134;28;20028;-40
2022/04/01 00:20:22;;;;;;;4.80;1.10;;;2.70;70.40;;;;;;5009594;28;20495;-40
2022/04/01 00:22:49;;;;;;;5.15;1.50;;;2.70;70.40;;;;;;5008998;28;20037;-40
2022/04/01 00:25:17;;;;;;;3.80;1.33;;;2.70;69.30;;;;;;5009469;28;20497;-39
2022/04/01 00:27:44;;;;;;;6.10;1.42;;;2.70;69.60;;;;;;5009797;28;20367;-39
2022/04/01 00:30:10;;;;;;;7.03;1.33;;;2.70;69.10;;;;;;5009923;28;20037;-40
2022/04/01 00:32:36;;;;;;;3.85;1.05;;;2.80;69.60;;;;;;5009728;28;20504;-42
2022/04/01 00:35:06;;;;;;;5.75;0.93;;;2.80;69.10;;;;;;4996479;28;20038;-40
2022/04/01 00:37:34;;;;;;;2.80;1.15;;;2.80;69.70;;;;;;5013767;28;20037;-40
2022/04/01 00:40:03;;;;;;;4.22;1.30;;;2.80;69.10;;;;;;5013772;28;20045;-41
2022/04/01 00:42:30;;;;;;;4.43;1.17;;;2.80;69.80;;;;;;5013644;28;20045;-40
2022/04/01 00:44:58;;;;;;;4.05;1.48;;;2.80;69.00;;;;;;5013520;28;20048;-41
2022/04/01 00:47:26;;;;;;;3.35;1.38;;;2.80;68.40;;;;;;5013314;28;20034;-41
2022/04/01 00:49:55;;;;;;;2.40;0.95;;;2.90;69.10;;;;;;5010836;28;20470;-42
2022/04/01 00:52:22;;;;;;;6.53;1.40;;;2.80;68.80;;;;;;5013043;28;20066;-44
2022/04/01 00:54:52;;;;;;;5.22;1.55;;;2.90;70.70;;;;;;5012262;28;20041;-45
2022/04/01 00:57:21;;;;;;;4.10;1.10;;;2.80;68.60;;;;;;5012698;28;20034;-40
2022/04/01 00:59:54;;;;;;;;;;;2.80;69.50;;;;;;5012862;28;20038;-40
2022/04/01 01:02:30;;;;;;;4.53;1.13;;;2.90;70.20;;;;;;5010390;28;20403;-41
2022/04/01 01:04:56;;;;;;;3.55;1.45;;;2.90;69.20;;;;;;5012841;28;20026;-42
2022/04/01 01:07:24;;;;;;;2.55;1.00;;;2.90;68.90;;;;;;5012694;28;20030;-42
2022/04/01 01:09:50;;;;;;;2.47;0.90;;;2.90;68.40;;;;;;5012047;28;20477;-40
2022/04/01 01:12:17;;;;;;;2.53;0.80;;;2.90;68.30;;;;;;5012297;28;20424;-40
2022/04/01 01:14:44;;;;;;;3.95;1.25;;;2.90;67.70;;;;;;5012365;28;20093;-43
2022/04/01 01:17:12;;;;;;;7.47;1.45;;;2.90;68.60;;;;;;5011441;28;20057;-42
2022/04/01 01:19:39;;;;;;;5.25;1.45;;;2.90;67.20;;;;;;5011413;28;20025;-43
2022/04/01 01:22:08;;;;;;;4.88;1.02;;;2.90;66.80;;;;;;5010835;28;20030;-40
2022/04/01 01:24:55;;;;;;;4.25;1.20;;;2.90;68.10;;;;;;5012097;28;20069;-40
2022/04/01 01:27:22;;;;;;;5.00;1.20;;;2.90;68.30;;;;;;5012029;28;20320;-40
2022/04/01 01:29:48;;;;;;;1.95;0.82;;;2.90;68.90;;;;;;4996422;28;20042;-41
2022/04/01 01:32:19;;;;;;;6.85;1.13;;;2.90;66.90;;;;;;5011891;28;20095;-40
2022/04/01 01:34:44;;;;;;;3.15;1.10;;;2.90;68.10;;;;;;5011949;28;20586;-40
2022/04/01 01:37:11;;;;;;;4.72;1.38;;;2.90;67.40;;;;;;4994120;28;20057;-41
2022/04/01 01:39:38;;;;;;;2.97;1.00;;;2.90;67.10;;;;;;4994456;28;20356;-44
2022/04/01 01:42:05;;;;;;;4.22;1.00;;;2.90;67.30;;;;;;5010514;28;20418;-43
2022/04/01 01:44:32;;;;;;;5.38;1.35;;;2.90;67.80;;;;;;5010410;28;20022;-40
2022/04/01 01:46:59;;;;;;;3.83;1.02;;;2.90;67.70;;;;;;5010932;28;20157;-41
2022/04/01 01:49:26;;;;;;;4.10;1.52;;;2.90;65.80;;;;;;5011476;28;20041;-40
2022/04/01 01:54:46;;;;;;;6.25;1.33;;;3.00;68.30;;;;;;5012360;28;20041;-40
2022/04/01 01:57:27;;;;;;;5.03;1.05;;;2.90;67.70;;;;;;5012235;28;20347;-40
2022/04/01 01:59:56;;;;;;;5.35;1.77;;;3.00;67.00;;;;;;5011514;28;20088;-40
2022/04/01 02:02:24;;;;;;;4.53;0.90;;;2.90;68.30;;;;;;5011028;28;20030;-41
2022/04/01 02:04:51;;;;;;;4.63;1.40;;;3.00;66.00;;;;;;5012076;28;20405;-41
2022/04/01 02:07:18;;;;;;;5.57;1.15;;;2.90;68.00;;;;;;5012161;28;20121;-40
2022/04/01 02:09:48;;;;;;;3.60;1.00;;;2.90;67.50;;;;;;5011937;28;20037;-44
2022/04/01 02:12:16;;;;;;;3.35;0.90;;;2.90;68.30;;;;;;5011775;28;20030;-42
2022/04/01 02:14:42;;;;;;;2.53;0.70;;;2.90;68.30;;;;;;5012075;28;20076;-40
2022/04/01 02:17:10;;;;;;;3.50;1.33;;;2.90;65.70;;;;;;5011776;28;20030;-40
2022/04/01 02:19:37;;;;;;;5.22;0.88;;;2.90;66.50;;;;;;5010728;28;20359;-41
2022/04/01 02:22:05;;;;;;;4.47;1.05;;;2.90;65.70;;;;;;5010218;28;20038;-40
2022/04/01 02:24:33;;;;;;;2.22;0.63;;;2.90;67.40;;;;;;5008905;28;20124;-44
2022/04/01 02:27:00;;;;;;;7.03;1.48;;;2.90;66.60;;;;;;5010560;28;20045;-43
2022/04/01 02:29:29;;;;;;;4.05;1.00;;;2.90;67.90;;;;;;5009535;28;20034;-40
2022/04/01 02:31:57;;;;;;;2.38;1.15;;;2.90;67.80;;;;;;5010740;28;20041;-40
2022/04/01 02:34:25;;;;;;;4.40;1.33;;;2.90;67.30;;;;;;5009847;28;20041;-43
2022/04/01 02:36:57;;;;;;;2.15;0.85;;;2.90;66.80;;;;;;5009733;28;20041;-41
2022/04/01 02:39:24;;;;;;;5.20;1.00;;;2.80;66.90;;;;;;5009351;28;20349;-41
2022/04/01 02:41:52;;;;;;;6.07;1.30;;;2.90;67.50;;;;;;5010298;28;20041;-45
2022/04/01 02:44:19;;;;;;;3.45;1.00;;;2.90;68.60;;;;;;5010459;28;20472;-42
2022/04/01 02:46:45;;;;;;;3.45;0.85;;;2.80;67.40;;;;;;5008967;28;20108;-41
2022/04/01 02:49:19;;;;;;;5.05;0.80;;;2.80;67.50;;;;;;4992956;28;20175;-40
2022/04/01 02:51:56;;;;;;;2.15;0.80;;;2.80;67.10;;;;;;5008341;28;20037;-44
2022/04/01 02:54:23;;;;;;;4.30;1.00;;;2.80;67.70;;;;;;5008461;28;20048;-42
2022/04/01 02:56:50;;;;;;;8.02;1.48;;;2.80;68.70;;;;;;5009029;28;20165;-42
2022/04/01 02:59:17;;;;;;;3.33;1.33;;;2.70;69.10;;;;;;5010817;28;20401;-44
2022/04/01 03:01:43;;;;;;;4.63;1.05;;;2.80;67.70;;;;;;5010002;28;20038;-40
2022/04/01 03:04:13;;;;;;;6.50;1.23;;;2.80;68.60;;;;;;5008326;28;20552;-45
2022/04/01 03:06:43;;;;;;;;;;;2.70;68.80;;;;;;5010611;28;20044;-43
2022/04/01 03:09:12;;;;;;;2.15;0.85;;;2.70;68.70;;;;;;5010000;28;19920;-41
2022/04/01 03:11:38;;;;;;;5.40;1.15;;;2.70;68.20;;;;;;5010931;28;20044;-43
2022/04/01 03:14:13;;;;;;;3.15;1.67;;;2.70;68.60;;;;;;5010259;28;20773;-42
2022/04/01 03:16:40;;;;;;;2.72;0.88;;;2.70;68.20;;;;;;5010221;28;20375;-46
2022/04/01 03:19:10;;;;;;;4.15;1.25;;;2.70;68.80;;;;;;5010412;28;20451;-44
2022/04/01 03:21:42;;;;;;;5.20;0.93;;;2.70;67.70;;;;;;5009527;28;20029;-41
2022/04/01 03:24:09;;;;;;;3.00;0.85;;;2.70;68.10;;;;;;5007394;28;20038;-43
2022/04/01 03:26:38;;;;;;;3.10;1.13;;;2.70;68.20;;;;;;5009087;28;20032;-42
2022/04/01 03:29:10;;;;;;;4.45;0.95;;;2.70;67.40;;;;;;5010286;28;20032;-42
2022/04/01 03:31:41;;;;;;;4.38;1.20;;;2.70;67.40;;;;;;5008882;28;20348;-44
2022/04/01 03:34:10;;;;;;;2.05;0.80;;;2.70;66.60;;;;;;5010391;28;20041;-45
2022/04/01 03:36:36;;;;;;;2.55;1.10;;;2.70;66.70;;;;;;5009627;28;20093;-46
2022/04/01 03:39:04;;;;;;;1.98;1.48;;;2.70;67.70;;;;;;5010236;28;20022;-41
2022/04/01 03:41:31;;;;;;;3.70;1.20;;;2.70;67.20;;;;;;5009555;28;20127;-43
2022/04/01 03:44:02;;;;;;;2.28;0.90;;;2.60;68.70;;;;;;5009177;28;20033;-42
2022/04/01 03:47:01;;;;;;;4.53;1.17;;;2.60;67.30;;;;;;5009066;28;20030;-47
2022/04/01 03:49:31;;;;;;;3.60;1.00;;;2.60;67.00;;;;;;5008755;28;20045;-46
2022/04/01 03:52:01;;;;;;;2.33;1.00;;;2.70;68.40;;;;;;4992478;28;20420;-42
2022/04/01 03:54:28;;;;;;;5.72;1.10;;;2.60;67.20;;;;;;5008424;28;20057;-44
2022/04/01 03:56:59;;;;;;;3.75;1.08;;;2.60;68.70;;;;;;5008037;28;20034;-41
2022/04/01 03:59:40;;;;;;;7.47;3.15;;;2.60;69.50;;;;;;5008506;28;20018;-44
2022/04/01 04:02:14;;;;;;;4.38;1.00;;;2.60;67.90;;;;;;5007879;28;20444;-43
2022/04/01 04:04:41;;;;;;;7.03;1.08;;;2.60;68.70;;;;;;5009161;28;20036;-41
2022/04/01 04:07:09;;;;;;;4.47;1.15;;;2.60;67.70;;;;;;4993148;28;20069;-42
2022/04/01 04:09:39;;;;;;;3.47;0.73;;;2.60;67.40;;;;;;4982503;28;20532;-41
2022/04/01 04:12:13;;;;;;;3.95;0.93;;;2.60;66.90;;;;;;5014654;28;20337;-43
2022/04/01 04:14:43;;;;;;;5.03;2.17;;;2.60;67.70;;;;;;5015690;28;20030;-42
2022/04/01 04:17:18;;;;;;;;;;;2.60;67.40;;;;;;5015782;28;20043;-43
2022/04/01 04:20:13;;;;;;;2.75;1.15;;;2.60;67.20;;;;;;5013307;28;19909;-42
2022/04/01 04:22:51;;;;;;;4.00;1.08;;;2.50;68.10;;;;;;5000757;28;20026;-43
2022/04/01 04:25:24;;;;;;;4.45;2.03;;;2.50;67.50;;;;;;5014010;28;20058;-42
2022/04/01 04:27:59;;;;;;;2.50;1.13;;;2.60;66.30;;;;;;4997823;28;20034;-42
2022/04/01 04:30:42;;;;;;;3.85;1.00;;;2.50;67.10;;;;;;4994568;28;20092;-41
2022/04/01 04:33:09;;;;;;;3.03;0.85;;;2.60;68.50;;;;;;4989499;28;20422;-44
2022/04/01 04:35:38;;;;;;;3.08;0.70;;;2.60;67.70;;;;;;4998877;28;20030;-41
2022/04/01 04:38:06;;;;;;;3.33;1.17;;;2.60;67.40;;;;;;4996288;28;20034;-42
2022/04/01 04:40:34;;;;;;;2.97;0.80;;;2.60;68.70;;;;;;4981683;28;20116;-41
2022/04/01 04:43:01;;;;;;;5.22;1.02;;;2.60;67.20;;;;;;5015911;28;20030;-43
2022/04/01 04:45:32;;;;;;;4.80;1.00;;;2.60;67.70;;;;;;4981414;28;20521;-43
2022/04/01 04:47:59;;;;;;;1.88;0.88;;;2.60;66.80;;;;;;5015831;28;20438;-46
2022/04/01 04:50:26;;;;;;;3.25;1.50;;;2.60;67.70;;;;;;5013320;28;20030;-43
2022/04/01 04:52:55;;;;;;;3.33;1.08;;;2.60;67.30;;;;;;5011727;28;20467;-45
2022/04/01 04:55:22;;;;;;;2.60;0.73;;;2.60;68.20;;;;;;5000062;28;20057;-43
2022/04/01 04:57:50;;;;;;;7.13;1.27;;;2.60;67.10;;;;;;5014758;28;20275;-42
2022/04/01 05:00:19;;;;;;;7.68;1.10;;;2.50;67.50;;;;;;4998338;28;20364;-42
2022/04/01 05:03:06;;;;;;;7.65;1.70;;;2.60;67.80;;;;;;5015618;28;20128;-42
2022/04/01 05:05:56;;;;;;;2.53;0.70;;;2.60;68.10;;;;;;5015977;28;20037;-44
2022/04/01 05:08:40;;;;;;;9.35;1.25;;;2.60;67.70;;;;;;5014859;28;20131;-42
2022/04/01 05:11:25;;;;;;;25.05;2.50;;;2.60;68.20;;;;;;5015708;28;20037;-42
2022/04/01 05:14:16;;;;;;;5.70;1.00;;;2.60;67.70;;;;;;5015575;28;20533;-44
2022/04/01 05:17:05;;;;;;;4.88;1.05;;;2.60;68.60;;;;;;5015697;28;20022;-45
2022/04/01 05:19:35;;;;;;;10.07;1.13;;;2.60;68.60;;;;;;4995277;28;20033;-43
2022/04/01 05:22:23;;;;;;;5.20;1.30;;;2.60;68.10;;;;;;5012295;28;20424;-43
2022/04/01 05:25:09;;;;;;;15.18;1.25;;;2.60;68.30;;;;;;5010913;28;20061;-44
2022/04/01 05:27:42;;;;;;;2.92;0.88;;;2.60;67.60;;;;;;5012326;28;20062;-41
2022/04/01 05:30:16;;;;;;;6.10;1.50;;;2.70;67.60;;;;;;5009337;28;20363;-41
2022/04/01 05:33:06;;;;;;;4.88;1.20;;;2.60;69.40;;;;;;5010231;28;20448;-41
2022/04/01 05:35:37;;;;;;;4.65;0.90;;;2.60;67.40;;;;;;5008824;28;20026;-49
2022/04/01 05:38:04;;;;;;;4.50;1.63;;;2.60;68.80;;;;;;4994076;28;20065;-41
2022/04/01 05:40:32;;;;;;;3.22;1.42;;;2.60;67.90;;;;;;5010409;28;20030;-48
2022/04/01 05:43:11;;;;;;;4.85;1.30;;;2.60;69.00;;;;;;5009456;28;20038;-45
2022/04/01 05:45:44;;;;;;;2.35;1.10;;;2.60;68.20;;;;;;5009437;28;20037;-44
2022/04/01 05:48:11;;;;;;;2.83;1.10;;;2.70;69.90;;;;;;5010352;28;20049;-43
2022/04/01 05:50:39;;;;;;;5.18;1.30;;;2.70;68.80;;;;;;5009450;28;20034;-42
2022/04/01 05:53:07;;;;;;;4.03;1.17;;;2.70;69.10;;;;;;5011158;28;20030;-44
2022/04/01 05:55:41;;;;;;;2.60;1.17;;;2.70;68.30;;;;;;4978334;28;20030;-41
2022/04/01 05:58:08;;;;;;;4.03;1.60;;;2.70;67.60;;;;;;5010382;28;20030;-45
2022/04/01 06:00:46;;;;;;;4.90;1.60;;;2.70;68.50;;;;;;5009625;28;20033;-44
2022/04/01 06:03:29;;;;;;;3.30;0.85;;;2.70;67.60;;;;;;5009047;28;20026;-42
2022/04/01 06:06:19;;;;;;;6.25;1.67;;;2.70;67.90;;;;;;5001930;28;20029;-42
2022/04/01 06:09:03;;;;;;;8.10;1.30;;;2.80;67.90;;;;;;5006700;28;20172;-47
2022/04/01 06:12:05;;;;;;;5.30;1.10;;;2.70;69.00;;;;;;5008594;28;20080;-41
2022/04/01 06:15:08;;;;;;;3.92;1.48;;;2.70;67.80;;;;;;5007711;28;20060;-44
2022/04/01 06:18:12;;;;;;;5.43;1.25;;;2.70;68.50;;;;;;5004815;28;20026;-41
2022/04/01 06:20:45;;;;;;;11.38;3.70;;;2.70;68.30;;;;;;5008599;28;20048;-45
2022/04/01 06:23:35;;;;;;;8.18;1.20;;;2.70;68.50;;;;;;4988917;28;20495;-46
2022/04/01 06:26:09;;;;;;;10.05;1.65;;;2.70;67.70;;;;;;5008758;28;20041;-44
2022/04/01 06:28:48;;;;;;;4.47;1.08;;;2.80;67.90;;;;;;5010052;28;20064;-45
2022/04/01 06:31:21;;;;;;;16.23;1.45;;;2.80;68.70;;;;;;5017378;28;20026;-46
2022/04/01 06:34:14;;;;;;;10.75;1.20;;;2.90;69.00;;;;;;4992595;28;20368;-45
2022/04/01 06:36:55;;;;;;;11.13;1.65;;;2.80;68.50;;;;;;5006412;28;20025;-45
2022/04/01 06:39:43;;;;;;;5.65;2.03;;;2.80;69.50;;;;;;5011156;28;20462;-43
2022/04/01 06:42:22;;;;;;;5.70;1.45;;;2.80;69.00;;;;;;5002858;28;20029;-43
2022/04/01 06:44:51;;;;;;;5.38;1.38;;;2.90;69.00;;;;;;5003997;28;20034;-46
2022/04/01 06:47:19;;;;;;;2.55;1.25;;;2.90;68.00;;;;;;5001907;28;20037;-41
2022/04/01 06:49:46;;;;;;;4.78;1.40;;;2.90;69.10;;;;;;5008230;28;20025;-42
2022/04/01 06:52:19;;;;;;;2.60;1.10;;;2.90;69.50;;;;;;5010218;28;20018;-44
2022/04/01 06:54:46;;;;;;;3.20;1.00;;;2.90;69.20;;;;;;5009141;28;20443;-45
2022/04/01 06:57:18;;;;;;;2.25;1.00;;;2.90;68.50;;;;;;5007373;28;20048;-43
2022/04/01 06:59:46;;;;;;;4.93;1.13;;;2.90;68.70;;;;;;5001760;28;20116;-41
2022/04/01 07:02:14;;;;;;;6.60;1.33;;;2.90;68.90;;;;;;5006110;28;20024;-41
2022/04/01 07:04:41;;;;;;;4.38;1.40;;;3.00;69.10;;;;;;5006575;28;20034;-41
2022/04/01 07:07:08;;;;;;;2.45;1.10;;;2.90;68.70;;;;;;5008979;28;20061;-44
2022/04/01 07:09:38;;;;;;;2.42;1.25;;;2.90;68.80;;;;;;5004807;28;20440;-46
2022/04/01 07:12:05;;;;;;;3.88;1.30;;;2.90;69.10;;;;;;5001523;28;20034;-45
2022/04/01 07:14:33;;;;;;;3.22;1.10;;;3.00;68.20;;;;;;5002913;28;20014;-44
2022/04/01 07:17:02;;;;;;;7.80;1.40;;;2.90;70.10;;;;;;5001970;28;20033;-41
2022/04/01 07:19:29;;;;;;;15.32;2.03;;;2.90;68.90;;;;;;5004436;28;20025;-42
2022/04/01 07:21:55;;;;;;;6.88;1.08;;;3.00;68.40;;;;;;5002220;28;20072;-45
2022/04/01 07:24:22;;;;;;;3.70;1.23;;;3.00;68.50;;;;;;5003261;28;20092;-44
2022/04/01 07:26:49;;;;;;;7.90;1.35;;;3.00;69.70;;;;;;4999907;28;20116;-46
2022/04/01 07:29:18;;;;;;;5.35;1.05;;;3.00;69.10;;;;;;5006299;28;20506;-47
2022/04/01 07:34:43;;;;;;;5.50;1.27;;;3.00;68.70;;;;;;5006844;28;20112;-43
2022/04/01 07:37:11;;;;;;;3.38;1.48;;;3.10;69.00;;;;;;4987238;28;20030;-45
2022/04/01 07:39:38;;;;;;;5.82;1.00;;;3.10;67.50;;;;;;5003357;28;20026;-45
2022/04/01 07:42:05;;;;;;;7.30;1.10;;;3.00;68.20;;;;;;5006664;28;20064;-42
2022/04/01 07:44:33;;;;;;;6.25;1.20;;;3.10;69.10;;;;;;5007976;28;20057;-43
2022/04/01 07:47:00;;;;;;;4.53;1.15;;;3.00;69.30;;;;;;5008633;28;20041;-44
2022/04/01 07:49:27;;;;;;;6.55;1.13;;;3.20;67.90;;;;;;5000594;28;20125;-44
2022/04/01 07:51:54;;;;;;;3.08;0.93;;;3.20;68.80;;;;;;5003878;28;20037;-43
2022/04/01 07:54:20;;;;;;;6.90;1.70;;;3.20;68.30;;;;;;5005505;28;20121;-46
2022/04/01 07:56:46;;;;;;;3.97;1.17;;;3.20;68.50;;;;;;5006695;28;20033;-43
2022/04/01 07:59:14;;;;;;;14.23;1.83;;;3.20;67.90;;;;;;5007213;28;20041;-46
2022/04/01 08:01:41;;;;;;;14.05;2.00;;;3.30;68.30;;;;;;5007087;28;20129;-42
2022/04/01 08:04:07;;;;;;;9.73;1.20;;;3.20;68.00;;;;;;5008172;28;20025;-43
2022/04/01 08:06:34;;;;;;;12.52;1.65;;;3.20;68.60;;;;;;5008666;28;20044;-43
2022/04/01 08:09:03;;;;;;;3.60;1.23;;;3.40;69.10;;;;;;5009284;28;20010;-43
2022/04/01 08:11:29;;;;;;;3.08;0.90;;;3.30;68.20;;;;;;5009144;28;20057;-42
2022/04/01 08:13:57;;;;;;;4.13;1.50;;;3.30;67.70;;;;;;5009124;28;20026;-45
2022/04/01 08:16:23;;;;;;;7.65;2.55;;;3.30;67.10;;;;;;5008466;28;20100;-44
2022/04/01 08:18:50;;;;;;;3.92;1.48;;;3.40;67.20;;;;;;5009461;28;20459;-46
2022/04/01 08:21:18;;;;;;;3.20;1.30;;;3.30;66.40;;;;;;5009408;28;20034;-43
2022/04/01 08:23:49;;;;;;;14.88;1.70;;;3.40;68.30;;;;;;5008485;28;20044;-47
2022/04/01 08:26:18;;;;;;;8.05;1.40;;;3.40;67.90;;;;;;5009227;28;20091;-43
2022/04/01 08:28:45;;;;;;;8.18;1.33;;;3.40;66.80;;;;;;5008843;28;20034;-44
2022/04/01 08:31:10;;;;;;;4.90;1.55;;;3.50;66.10;;;;;;5008253;28;20355;-46
2022/04/01 08:33:37;;;;;;;6.13;2.72;;;3.40;66.90;;;;;;5006951;28;20026;-49
2022/04/01 08:36:04;;;;;;;4.50;2.00;;;3.40;65.40;;;;;;5008070;28;20071;-44
2022/04/01 08:38:32;;;;;;;8.23;2.33;;;3.50;67.70;;;;;;5007032;28;20057;-46
2022/04/01 08:41:03;;;;;;;7.57;1.33;;;3.40;66.70;;;;;;5007329;28;20064;-43
2022/04/01 08:43:49;;;;;;;3.78;1.92;;;3.40;66.20;;;;;;5008162;28;20129;-45
2022/04/01 08:46:26;;;;;;;5.32;1.45;;;3.40;64.90;;;;;;5005937;28;20026;-45
2022/04/01 08:48:54;;;;;;;4.30;1.25;;;3.40;65.40;;;;;;5004747;28;20042;-43
2022/04/01 08:51:22;;;;;;;3.17;1.17;;;3.50;66.20;;;;;;5007082;28;20440;-48
2022/04/01 08:53:49;;;;;;;4.68;1.15;;;3.50;66.70;;;;;;5006212;28;20084;-41
2022/04/01 08:56:19;;;;;;;6.47;1.38;;;3.50;67.40;;;;;;5010003;28;20339;-41
2022/04/01 08:58:47;;;;;;;7.75;1.75;;;3.60;65.80;;;;;;4987173;28;20046;-44
2022/04/01 09:01:14;;;;;;;5.90;1.65;;;3.50;64.80;;;;;;5026081;28;20057;-42
2022/04/01 09:03:41;;;;;;;4.25;1.10;;;3.50;66.30;;;;;;5009799;28;20498;-45
2022/04/01 09:06:11;;;;;;;5.55;1.38;;;3.70;66.20;;;;;;5008682;28;20420;-43
2022/04/01 09:08:42;;;;;;;2.25;1.13;;;3.70;65.10;;;;;;5008707;28;20045;-42
2022/04/01 09:11:20;;;;;;;5.50;1.33;;;3.70;63.40;;;;;;4978550;28;20030;-43
2022/04/01 09:13:50;;;;;;;3.38;0.90;;;3.70;64.10;;;;;;5001576;28;20137;-41
2022/04/01 09:16:42;;;;;;;5.57;1.25;;;3.80;64.40;;;;;;5011477;28;20115;-44
2022/04/01 09:19:12;;;;;;;5.43;1.52;;;3.80;65.10;;;;;;5009121;28;20160;-46
2022/04/01 09:21:42;;;;;;;2.45;0.82;;;3.90;66.20;;;;;;5010561;28;20061;-44
2022/04/01 09:24:10;;;;;;;3.85;1.35;;;3.90;63.00;;;;;;5008091;28;20057;-42
2022/04/01 09:26:40;;;;;;;4.50;1.15;;;4.00;63.50;;;;;;5010933;28;20034;-45
2022/04/01 09:29:19;;;;;;;2.45;0.90;;;3.90;62.30;;;;;;4993930;28;20058;-43
2022/04/01 09:31:59;;;;;;;4.88;1.38;;;3.90;63.20;;;;;;4991598;28;20112;-41
2022/04/01 09:34:30;;;;;;;5.22;1.48;;;4.00;64.20;;;;;;5010748;28;20104;-48
2022/04/01 09:36:56;;;;;;;8.02;1.50;;;4.00;63.50;;;;;;5010879;28;20304;-44
2022/04/01 09:39:25;;;;;;;9.85;1.73;;;4.00;63.00;;;;;;5011572;28;20022;-47
2022/04/01 09:41:55;;;;;;;8.32;2.00;;;4.10;64.00;;;;;;5009925;28;20408;-44
2022/04/01 09:44:27;;;;;;;3.30;1.13;;;4.20;64.60;;;;;;5012018;28;20046;-42
2022/04/01 09:47:04;;;;;;;4.45;1.25;;;4.20;64.00;;;;;;5011088;28;20470;-42
2022/04/01 09:49:35;;;;;;;7.70;1.23;;;4.20;63.10;;;;;;5012137;28;20037;-45
2022/04/01 09:52:08;;;;;;;2.78;1.27;;;4.20;62.80;;;;;;5012490;28;20060;-43
2022/04/01 09:54:50;;;;;;;2.20;1.10;;;4.20;61.50;;;;;;5009321;28;20033;-46
2022/04/01 09:57:23;;;;;;;4.50;1.33;;;4.20;61.60;;;;;;4995532;28;20033;-45
2022/04/01 09:59:52;;;;;;;2.47;1.13;;;4.20;61.70;;;;;;5006532;28;20399;-44
2022/04/01 10:02:30;;;;;;;3.30;1.35;;;4.30;64.60;;;;;;5009608;28;20046;-44
2022/04/01 10:04:58;;;;;;;5.13;1.20;;;4.40;64.40;;;;;;5011376;28;20030;-43
2022/04/01 10:07:29;;;;;;;6.90;1.80;;;4.40;61.30;;;;;;5011975;28;20152;-44
2022/04/01 10:09:57;;;;;;;13.85;2.40;;;4.40;62.50;;;;;;5003656;28;20034;-43
2022/04/01 10:12:38;;;;;;;5.93;1.17;;;4.50;62.80;;;;;;5008542;28;20453;-42
2022/04/01 10:15:10;;;;;;;13.82;1.60;;;4.40;60.70;;;;;;5011008;28;20076;-42
2022/04/01 10:17:40;;;;;;;5.60;1.40;;;4.50;61.10;;;;;;5006734;28;20064;-45
2022/04/01 10:20:15;;;;;;;3.78;1.27;;;4.60;62.60;;;;;;5009079;28;20017;-44
2022/04/01 10:22:42;;;;;;;5.97;1.45;;;4.60;63.30;;;;;;5011430;28;20049;-49
2022/04/01 10:25:31;;;;;;;9.82;1.35;;;4.60;61.50;;;;;;5010259;28;20056;-46
2022/04/01 10:28:10;;;;;;;3.55;1.10;;;4.80;61.10;;;;;;5009810;28;20025;-47
2022/04/01 10:30:50;;;;;;;6.35;1.30;;;4.70;60.20;;;;;;5003022;28;20099;-44
2022/04/01 10:33:22;;;;;;;5.63;1.45;;;4.70;61.10;;;;;;5008935;28;20033;-46
2022/04/01 10:35:50;;;;;;;7.75;2.22;;;4.80;61.60;;;;;;5009860;28;20049;-43
2022/04/01 10:38:20;;;;;;;2.90;1.85;;;4.90;63.20;;;;;;5008186;28;20569;-42
2022/04/01 10:40:50;;;;;;;;;;;4.90;60.90;;;;;;4995379;28;20065;-44
2022/04/01 10:43:28;;;;;;;3.70;1.38;;;4.90;59.60;;;;;;5004304;28;20300;-41
2022/04/01 10:46:19;;;;;;;4.03;1.42;;;4.90;61.30;;;;;;5008818;28;20039;-45
2022/04/01 10:52:13;;;;;;;3.92;1.23;;;5.00;61.00;;;;;;5004141;28;20113;-45
2022/04/01 10:54:44;;;;;;;3.65;1.20;;;5.00;58.90;;;;;;5011088;28;20036;-42
2022/04/01 10:57:32;;;;;;;6.00;1.42;;;5.10;60.10;;;;;;5010341;28;20059;-42
2022/04/01 11:00:13;;;;;;;3.38;1.27;;;5.10;57.90;;;;;;5009980;28;20022;-46
2022/04/01 11:02:44;;;;;;;4.03;1.52;;;5.10;58.60;;;;;;4998360;28;20034;-44
2022/04/01 11:05:39;;;;;;;6.05;1.55;;;5.20;59.20;;;;;;5010538;28;20421;-43
2022/04/01 11:08:53;;;;;;;6.82;1.25;;;5.20;59.60;;;;;;5007882;28;20048;-42
2022/04/01 11:11:19;;;;;;;6.63;1.55;;;5.30;60.60;;;;;;5000781;28;20030;-44
2022/04/01 11:14:07;;;;;;;5.40;1.42;;;5.20;59.10;;;;;;5011317;28;20497;-46
2022/04/01 11:16:51;;;;;;;3.17;1.15;;;5.30;58.60;;;;;;5011061;28;20435;-48
2022/04/01 11:19:21;;;;;;;4.05;1.55;;;5.40;59.40;;;;;;5011180;28;20028;-44
2022/04/01 11:21:49;;;;;;;6.25;1.80;;;5.40;60.50;;;;;;5011575;28;20120;-45
2022/04/01 11:24:42;;;;;;;6.05;1.55;;;5.40;58.50;;;;;;5011056;28;20341;-43
2022/04/01 11:27:26;;;;;;;7.47;1.33;;;5.40;58.50;;;;;;5010488;28;20470;-42
2022/04/01 11:30:13;;;;;;;3.38;1.52;;;5.40;58.00;;;;;;5010506;28;20426;-42
2022/04/01 11:32:48;;;;;;;2.67;1.63;;;5.50;58.80;;;;;;5010184;28;20045;-45
2022/04/01 11:35:17;;;;;;;6.13;1.92;;;5.50;58.30;;;;;;5011042;28;20022;-43
2022/04/01 11:37:46;;;;;;;5.20;2.20;;;5.50;61.20;;;;;;5010757;28;20110;-44
2022/04/01 11:40:22;;;;;;;4.13;1.52;;;5.60;60.60;;;;;;5010016;28;21386;-46
2022/04/01 11:43:06;;;;;;;5.90;2.15;;;5.70;58.60;;;;;;5010112;28;20043;-44
2022/04/01 11:45:57;;;;;;;4.18;2.10;;;5.60;58.40;;;;;;5009225;28;20026;-44
2022/04/01 11:48:39;;;;;;;4.80;1.73;;;5.70;58.40;;;;;;5010235;28;20029;-46
2022/04/01 11:51:16;;;;;;;4.40;1.35;;;5.70;58.60;;;;;;5008511;28;20017;-44
2022/04/01 11:53:52;;;;;;;3.00;1.55;;;5.60;59.90;;;;;;5006768;28;20334;-42
2022/04/01 11:56:20;;;;;;;11.38;1.85;;;5.70;57.30;;;;;;5003489;28;20037;-47
2022/04/01 11:59:07;;;;;;;4.32;1.52;;;5.70;58.20;;;;;;4992088;28;20030;-43
2022/04/01 12:01:56;;;;;;;5.10;1.73;;;5.80;57.20;;;;;;5007702;28;20088;-47
2022/04/01 12:04:40;;;;;;;4.43;2.00;;;5.80;56.40;;;;;;5009020;28;20470;-43
2022/04/01 12:10:04;;;;;;;4.22;1.30;;;5.70;56.20;;;;;;5009632;28;20033;-43
2022/04/01 12:12:33;;;;;;;4.20;1.85;;;5.70;56.30;;;;;;5009235;28;20033;-47
2022/04/01 12:15:00;;;;;;;3.92;1.50;;;5.70;56.90;;;;;;5006914;28;20050;-42
2022/04/01 12:17:29;;;;;;;2.92;1.27;;;5.70;57.00;;;;;;5009089;28;20447;-45
2022/04/01 12:20:13;;;;;;;6.50;2.05;;;5.70;56.60;;;;;;5010191;28;20307;-44
2022/04/01 12:22:40;;;;;;;3.25;1.38;;;5.90;57.60;;;;;;5008035;28;20116;-45
2022/04/01 12:25:08;;;;;;;3.67;1.50;;;5.80;54.70;;;;;;5007040;28;20092;-45
2022/04/01 12:28:13;;;;;;;4.65;2.00;;;5.80;53.10;;;;;;4996250;28;20477;-42
2022/04/01 12:30:49;;;;;;;4.43;1.45;;;5.80;53.40;;;;;;4999294;28;20497;-44
2022/04/01 12:33:24;;;;;;;3.58;1.30;;;5.80;54.40;;;;;;5012623;28;20459;-42
2022/04/01 12:36:04;;;;;;;4.03;1.80;;;5.90;54.00;;;;;;5012119;28;20466;-45
2022/04/01 12:38:33;;;;;;;3.20;1.20;;;5.90;55.50;;;;;;5013472;28;20049;-43
2022/04/01 12:41:18;;;;;;;5.88;1.55;;;5.90;52.60;;;;;;5012779;28;20038;-44
2022/04/01 12:43:53;;;;;;;3.60;1.40;;;5.90;52.70;;;;;;5013316;28;20026;-45
2022/04/01 12:46:25;;;;;;;3.50;1.20;;;5.90;53.10;;;;;;5014474;28;20459;-45
2022/04/01 12:49:12;;;;;;;5.78;1.58;;;5.90;53.40;;;;;;5014123;28;20030;-43
2022/04/01 12:51:40;;;;;;;6.95;1.48;;;5.90;54.40;;;;;;5012132;28;20045;-42
2022/04/01 12:54:11;;;;;;;4.70;1.77;;;5.90;56.70;;;;;;5013419;28;20034;-45
2022/04/01 12:56:58;;;;;;;5.63;2.10;;;5.90;57.20;;;;;;5014029;28;20038;-45
2022/04/01 12:59:26;;;;;;;5.30;1.77;;;5.90;56.70;;;;;;5013076;28;20041;-45
2022/04/01 13:02:06;;;;;;;6.90;1.90;;;5.80;57.40;;;;;;5012375;28;20041;-47
2022/04/01 13:04:51;;;;;;;5.80;1.85;;;5.70;54.60;;;;;;5012001;28;20061;-46
2022/04/01 13:07:36;;;;;;;3.90;2.42;;;5.80;56.30;;;;;;5013220;28;20057;-48
2022/04/01 13:10:16;;;;;;;4.38;1.35;;;5.90;56.20;;;;;;5011922;28;20084;-42
2022/04/01 13:12:46;;;;;;;2.78;1.30;;;5.90;55.00;;;;;;5012214;28;20037;-45
2022/04/01 13:15:17;;;;;;;5.20;1.27;;;5.90;51.90;;;;;;5011222;28;20029;-43
2022/04/01 13:17:45;;;;;;;8.27;1.23;;;5.80;51.30;;;;;;5008412;28;20034;-44
2022/04/01 13:20:12;;;;;;;3.22;1.33;;;5.70;50.00;;;;;;5011343;28;20028;-42
2022/04/01 13:22:40;;;;;;;2.72;1.30;;;5.80;52.90;;;;;;5012177;28;20033;-44
2022/04/01 13:25:19;;;;;;;3.53;1.83;;;5.60;53.10;;;;;;5009351;28;20092;-43
2022/04/01 13:27:48;;;;;;;5.03;1.60;;;5.70;55.50;;;;;;5005146;28;20034;-45
2022/04/01 13:30:18;;;;;;;3.67;1.52;;;5.60;54.70;;;;;;5011609;28;20470;-45
2022/04/01 13:32:46;;;;;;;6.90;2.10;;;5.70;56.30;;;;;;5010384;28;20037;-44
2022/04/01 13:35:15;;;;;;;5.70;2.28;;;5.70;55.30;;;;;;5008530;28;20037;-45
2022/04/01 13:37:42;;;;;;;5.57;1.55;;;5.70;56.90;;;;;;5009091;28;20120;-44